sensor_id;sensor_type;location;lat;lon;timestamp;P1;durP1;ratioP1;P2;durP2;ratioP2
70253;SDS011;57649;42.968;1.608;2024-02-15T00:01:08;10.55;;;5.57;;
70253;SDS011;57649;42.968;1.608;2024-02-15T00:04:02;12.07;;;7.15;;
70253;SDS011;57649;42.968;1.608;2024-02-15T00:06:34;12.23;;;6.88;;
70253;SDS011;57649;42.968;1.608;2024-02-15T00:09:20;12.05;;;6.40;;
70253;SDS011;57649;42.968;1.608;2024-02-15T00:14:59;9.90;;;6.65;;
70253;SDS011;57649;42.968;1.608;2024-02-15T00:17:57;11.38;;;6.43;;
70253;SDS011;57649;42.968;1.608;2024-02-15T00:20:22;10.43;;;6.40;;
70253;SDS011;57649;42.968;1.608;2024-02-15T00:22:48;11.80;;;6.68;;
70253;SDS011;57649;42.968;1.608;2024-02-15T00:25:14;11.55;;;7.75;;
70253;SDS011;57649;42.968;1.608;2024-02-15T00:27:40;12.93;;;7.55;;
70253;SDS011;57649;42.968;1.608;2024-02-15T00:30:05;11.93;;;7.28;;
70253;SDS011;57649;42.968;1.608;2024-02-15T00:32:32;10.18;;;7.07;;
70253;SDS011;57649;42.968;1.608;2024-02-15T00:34:58;9.68;;;7.13;;
70253;SDS011;57649;42.968;1.608;2024-02-15T00:37:24;11.23;;;7.25;;
70253;SDS011;57649;42.968;1.608;2024-02-15T00:39:51;11.52;;;6.95;;
70253;SDS011;57649;42.968;1.608;2024-02-15T00:42:22;13.23;;;7.40;;
70253;SDS011;57649;42.968;1.608;2024-02-15T00:45:06;10.23;;;7.25;;
70253;SDS011;57649;42.968;1.608;2024-02-15T00:48:05;10.57;;;6.63;;
70253;SDS011;57649;42.968;1.608;2024-02-15T00:50:49;12.13;;;6.35;;
70253;SDS011;57649;42.968;1.608;2024-02-15T00:53:49;12.52;;;6.82;;
70253;SDS011;57649;42.968;1.608;2024-02-15T00:56:43;4.93;;;3.40;;
70253;SDS011;57649;42.968;1.608;2024-02-15T00:59:09;5.78;;;4.15;;
70253;SDS011;57649;42.968;1.608;2024-02-15T01:01:34;5.82;;;3.10;;
70253;SDS011;57649;42.968;1.608;2024-02-15T01:04:03;6.13;;;3.75;;
70253;SDS011;57649;42.968;1.608;2024-02-15T01:06:28;9.60;;;4.90;;
70253;SDS011;57649;42.968;1.608;2024-02-15T01:08:54;11.45;;;6.82;;
70253;SDS011;57649;42.968;1.608;2024-02-15T01:11:19;8.00;;;5.22;;
70253;SDS011;57649;42.968;1.608;2024-02-15T01:13:57;10.02;;;6.80;;
70253;SDS011;57649;42.968;1.608;2024-02-15T01:16:23;7.95;;;4.97;;
70253;SDS011;57649;42.968;1.608;2024-02-15T01:18:49;7.20;;;3.72;;
70253;SDS011;57649;42.968;1.608;2024-02-15T01:21:15;6.93;;;4.70;;
70253;SDS011;57649;42.968;1.608;2024-02-15T01:23:40;9.82;;;5.00;;
70253;SDS011;57649;42.968;1.608;2024-02-15T01:26:06;8.65;;;6.13;;
70253;SDS011;57649;42.968;1.608;2024-02-15T01:28:32;10.02;;;5.50;;
70253;SDS011;57649;42.968;1.608;2024-02-15T01:30:57;7.95;;;5.07;;
70253;SDS011;57649;42.968;1.608;2024-02-15T01:33:28;7.93;;;5.28;;
70253;SDS011;57649;42.968;1.608;2024-02-15T01:35:54;9.32;;;5.45;;
70253;SDS011;57649;42.968;1.608;2024-02-15T01:38:19;8.38;;;5.25;;
70253;SDS011;57649;42.968;1.608;2024-02-15T01:40:46;10.90;;;4.78;;
70253;SDS011;57649;42.968;1.608;2024-02-15T01:43:12;8.18;;;4.93;;
70253;SDS011;57649;42.968;1.608;2024-02-15T01:45:37;7.30;;;4.13;;
70253;SDS011;57649;42.968;1.608;2024-02-15T01:48:03;8.55;;;3.92;;
70253;SDS011;57649;42.968;1.608;2024-02-15T01:50:29;6.93;;;3.85;;
70253;SDS011;57649;42.968;1.608;2024-02-15T01:52:57;6.18;;;3.75;;
70253;SDS011;57649;42.968;1.608;2024-02-15T01:55:24;6.55;;;4.10;;
70253;SDS011;57649;42.968;1.608;2024-02-15T01:57:49;6.10;;;3.58;;
70253;SDS011;57649;42.968;1.608;2024-02-15T02:00:18;5.00;;;3.40;;
70253;SDS011;57649;42.968;1.608;2024-02-15T02:02:44;7.53;;;2.87;;
70253;SDS011;57649;42.968;1.608;2024-02-15T02:05:11;6.25;;;3.90;;
70253;SDS011;57649;42.968;1.608;2024-02-15T02:07:37;7.53;;;4.50;;
70253;SDS011;57649;42.968;1.608;2024-02-15T02:10:02;7.72;;;5.13;;
70253;SDS011;57649;42.968;1.608;2024-02-15T02:12:31;6.25;;;3.92;;
70253;SDS011;57649;42.968;1.608;2024-02-15T02:15:11;14.35;;;8.50;;
70253;SDS011;57649;42.968;1.608;2024-02-15T02:17:55;10.32;;;6.07;;
70253;SDS011;57649;42.968;1.608;2024-02-15T02:20:49;9.27;;;4.72;;
70253;SDS011;57649;42.968;1.608;2024-02-15T02:23:28;7.78;;;4.30;;
70253;SDS011;57649;42.968;1.608;2024-02-15T02:26:20;7.85;;;4.63;;
70253;SDS011;57649;42.968;1.608;2024-02-15T02:28:52;9.40;;;3.88;;
70253;SDS011;57649;42.968;1.608;2024-02-15T02:31:26;7.60;;;3.72;;
70253;SDS011;57649;42.968;1.608;2024-02-15T02:33:52;7.28;;;3.25;;
70253;SDS011;57649;42.968;1.608;2024-02-15T02:36:43;5.20;;;2.80;;
70253;SDS011;57649;42.968;1.608;2024-02-15T02:39:24;5.20;;;2.80;;
70253;SDS011;57649;42.968;1.608;2024-02-15T02:42:14;3.97;;;2.80;;
70253;SDS011;57649;42.968;1.608;2024-02-15T02:45:11;3.75;;;2.38;;
70253;SDS011;57649;42.968;1.608;2024-02-15T02:50:45;4.70;;;3.00;;
70253;SDS011;57649;42.968;1.608;2024-02-15T02:53:10;4.95;;;3.42;;
70253;SDS011;57649;42.968;1.608;2024-02-15T02:55:40;5.75;;;3.70;;
70253;SDS011;57649;42.968;1.608;2024-02-15T02:58:06;5.22;;;3.33;;
70253;SDS011;57649;42.968;1.608;2024-02-15T03:00:32;3.67;;;2.58;;
70253;SDS011;57649;42.968;1.608;2024-02-15T03:02:58;6.00;;;2.80;;
70253;SDS011;57649;42.968;1.608;2024-02-15T03:05:24;4.55;;;2.80;;
70253;SDS011;57649;42.968;1.608;2024-02-15T03:07:54;3.80;;;2.47;;
70253;SDS011;57649;42.968;1.608;2024-02-15T03:10:19;5.43;;;3.05;;
70253;SDS011;57649;42.968;1.608;2024-02-15T03:12:52;5.35;;;2.85;;
70253;SDS011;57649;42.968;1.608;2024-02-15T03:15:25;5.63;;;3.05;;
70253;SDS011;57649;42.968;1.608;2024-02-15T03:17:55;4.47;;;2.75;;
70253;SDS011;57649;42.968;1.608;2024-02-15T03:21:02;4.93;;;2.58;;
70253;SDS011;57649;42.968;1.608;2024-02-15T03:24:06;7.47;;;3.00;;
70253;SDS011;57649;42.968;1.608;2024-02-15T03:26:40;6.63;;;3.22;;
70253;SDS011;57649;42.968;1.608;2024-02-15T03:29:25;4.38;;;3.10;;
70253;SDS011;57649;42.968;1.608;2024-02-15T03:31:51;4.28;;;3.15;;
70253;SDS011;57649;42.968;1.608;2024-02-15T03:34:18;6.53;;;2.95;;
70253;SDS011;57649;42.968;1.608;2024-02-15T03:36:46;7.63;;;3.63;;
70253;SDS011;57649;42.968;1.608;2024-02-15T03:39:16;5.32;;;3.45;;
70253;SDS011;57649;42.968;1.608;2024-02-15T03:41:42;5.10;;;3.28;;
70253;SDS011;57649;42.968;1.608;2024-02-15T03:44:10;6.10;;;3.47;;
70253;SDS011;57649;42.968;1.608;2024-02-15T03:46:36;6.13;;;3.13;;
70253;SDS011;57649;42.968;1.608;2024-02-15T03:49:04;6.18;;;3.03;;
70253;SDS011;57649;42.968;1.608;2024-02-15T03:54:33;6.47;;;3.15;;
70253;SDS011;57649;42.968;1.608;2024-02-15T03:57:14;7.25;;;3.20;;
70253;SDS011;57649;42.968;1.608;2024-02-15T04:03:23;5.18;;;2.97;;
70253;SDS011;57649;42.968;1.608;2024-02-15T04:06:07;5.85;;;2.67;;
70253;SDS011;57649;42.968;1.608;2024-02-15T04:08:41;3.97;;;2.92;;
70253;SDS011;57649;42.968;1.608;2024-02-15T04:11:06;4.53;;;2.90;;
70253;SDS011;57649;42.968;1.608;2024-02-15T04:13:35;4.38;;;2.83;;
70253;SDS011;57649;42.968;1.608;2024-02-15T04:16:00;6.03;;;2.92;;
70253;SDS011;57649;42.968;1.608;2024-02-15T04:18:26;5.82;;;3.22;;
70253;SDS011;57649;42.968;1.608;2024-02-15T04:20:51;6.15;;;3.97;;
70253;SDS011;57649;42.968;1.608;2024-02-15T04:23:19;4.72;;;2.92;;
70253;SDS011;57649;42.968;1.608;2024-02-15T04:25:49;6.15;;;3.45;;
70253;SDS011;57649;42.968;1.608;2024-02-15T04:28:16;6.32;;;3.35;;
70253;SDS011;57649;42.968;1.608;2024-02-15T04:30:42;5.78;;;2.58;;
70253;SDS011;57649;42.968;1.608;2024-02-15T04:33:07;5.32;;;2.70;;
70253;SDS011;57649;42.968;1.608;2024-02-15T04:35:33;6.03;;;3.20;;
70253;SDS011;57649;42.968;1.608;2024-02-15T04:37:59;5.00;;;3.17;;
70253;SDS011;57649;42.968;1.608;2024-02-15T04:40:24;6.10;;;3.15;;
70253;SDS011;57649;42.968;1.608;2024-02-15T04:42:50;6.82;;;3.13;;
70253;SDS011;57649;42.968;1.608;2024-02-15T04:45:15;5.53;;;3.53;;
70253;SDS011;57649;42.968;1.608;2024-02-15T04:47:41;7.03;;;3.25;;
70253;SDS011;57649;42.968;1.608;2024-02-15T04:50:07;5.13;;;3.10;;
70253;SDS011;57649;42.968;1.608;2024-02-15T04:52:34;9.32;;;3.53;;
70253;SDS011;57649;42.968;1.608;2024-02-15T04:54:59;7.53;;;4.10;;
70253;SDS011;57649;42.968;1.608;2024-02-15T04:57:25;7.18;;;4.65;;
70253;SDS011;57649;42.968;1.608;2024-02-15T04:59:53;9.25;;;5.38;;
70253;SDS011;57649;42.968;1.608;2024-02-15T05:02:26;9.25;;;4.80;;
70253;SDS011;57649;42.968;1.608;2024-02-15T05:04:56;7.70;;;4.45;;
70253;SDS011;57649;42.968;1.608;2024-02-15T05:07:50;10.43;;;5.00;;
70253;SDS011;57649;42.968;1.608;2024-02-15T05:10:39;6.95;;;4.68;;
70253;SDS011;57649;42.968;1.608;2024-02-15T05:13:29;7.22;;;4.47;;
70253;SDS011;57649;42.968;1.608;2024-02-15T05:16:02;7.35;;;4.00;;
70253;SDS011;57649;42.968;1.608;2024-02-15T05:18:44;8.88;;;4.60;;
70253;SDS011;57649;42.968;1.608;2024-02-15T05:21:18;6.38;;;3.88;;
70253;SDS011;57649;42.968;1.608;2024-02-15T05:23:44;6.75;;;3.90;;
70253;SDS011;57649;42.968;1.608;2024-02-15T05:26:11;9.50;;;4.13;;
70253;SDS011;57649;42.968;1.608;2024-02-15T05:28:37;5.88;;;4.00;;
70253;SDS011;57649;42.968;1.608;2024-02-15T05:31:12;6.32;;;3.70;;
70253;SDS011;57649;42.968;1.608;2024-02-15T05:33:42;6.95;;;4.30;;
70253;SDS011;57649;42.968;1.608;2024-02-15T05:36:12;5.07;;;3.13;;
70253;SDS011;57649;42.968;1.608;2024-02-15T05:38:38;6.93;;;4.10;;
70253;SDS011;57649;42.968;1.608;2024-02-15T05:41:04;7.15;;;3.63;;
70253;SDS011;57649;42.968;1.608;2024-02-15T05:43:32;5.28;;;3.00;;
70253;SDS011;57649;42.968;1.608;2024-02-15T05:45:58;7.63;;;3.22;;
70253;SDS011;57649;42.968;1.608;2024-02-15T05:48:24;7.47;;;5.18;;
70253;SDS011;57649;42.968;1.608;2024-02-15T05:50:51;7.30;;;4.00;;
70253;SDS011;57649;42.968;1.608;2024-02-15T05:53:19;5.15;;;3.10;;
70253;SDS011;57649;42.968;1.608;2024-02-15T05:55:44;4.35;;;2.90;;
70253;SDS011;57649;42.968;1.608;2024-02-15T05:58:10;6.65;;;3.40;;
70253;SDS011;57649;42.968;1.608;2024-02-15T06:00:46;7.18;;;3.42;;
70253;SDS011;57649;42.968;1.608;2024-02-15T06:03:39;6.00;;;3.67;;
70253;SDS011;57649;42.968;1.608;2024-02-15T06:06:11;6.03;;;3.78;;
70253;SDS011;57649;42.968;1.608;2024-02-15T06:08:40;6.38;;;4.15;;
70253;SDS011;57649;42.968;1.608;2024-02-15T06:11:11;8.00;;;4.30;;
70253;SDS011;57649;42.968;1.608;2024-02-15T06:13:53;7.47;;;3.72;;
70253;SDS011;57649;42.968;1.608;2024-02-15T06:16:19;5.82;;;3.58;;
70253;SDS011;57649;42.968;1.608;2024-02-15T06:18:44;6.78;;;3.97;;
70253;SDS011;57649;42.968;1.608;2024-02-15T06:21:13;7.50;;;3.80;;
70253;SDS011;57649;42.968;1.608;2024-02-15T06:23:38;6.88;;;3.92;;
70253;SDS011;57649;42.968;1.608;2024-02-15T06:26:04;7.88;;;4.28;;
70253;SDS011;57649;42.968;1.608;2024-02-15T06:28:29;10.73;;;4.50;;
70253;SDS011;57649;42.968;1.608;2024-02-15T06:31:14;8.38;;;5.43;;
70253;SDS011;57649;42.968;1.608;2024-02-15T06:33:58;8.27;;;5.57;;
70253;SDS011;57649;42.968;1.608;2024-02-15T06:36:45;7.72;;;5.05;;
70253;SDS011;57649;42.968;1.608;2024-02-15T06:39:33;7.75;;;4.28;;
70253;SDS011;57649;42.968;1.608;2024-02-15T06:42:10;8.13;;;4.65;;
70253;SDS011;57649;42.968;1.608;2024-02-15T06:44:45;9.98;;;4.80;;
70253;SDS011;57649;42.968;1.608;2024-02-15T06:47:26;13.25;;;5.72;;
70253;SDS011;57649;42.968;1.608;2024-02-15T06:50:14;7.30;;;4.22;;
70253;SDS011;57649;42.968;1.608;2024-02-15T06:52:44;5.82;;;4.30;;
70253;SDS011;57649;42.968;1.608;2024-02-15T06:55:15;9.57;;;4.10;;
70253;SDS011;57649;42.968;1.608;2024-02-15T06:57:47;6.35;;;3.88;;
70253;SDS011;57649;42.968;1.608;2024-02-15T07:00:21;8.32;;;4.05;;
70253;SDS011;57649;42.968;1.608;2024-02-15T07:02:47;10.32;;;4.13;;
70253;SDS011;57649;42.968;1.608;2024-02-15T07:05:13;7.80;;;4.40;;
70253;SDS011;57649;42.968;1.608;2024-02-15T07:07:39;6.63;;;4.55;;
70253;SDS011;57649;42.968;1.608;2024-02-15T07:10:05;7.97;;;4.00;;
70253;SDS011;57649;42.968;1.608;2024-02-15T07:12:31;6.03;;;3.85;;
70253;SDS011;57649;42.968;1.608;2024-02-15T07:14:57;7.13;;;4.47;;
70253;SDS011;57649;42.968;1.608;2024-02-15T07:17:22;9.48;;;5.10;;
70253;SDS011;57649;42.968;1.608;2024-02-15T07:19:48;7.60;;;4.68;;
70253;SDS011;57649;42.968;1.608;2024-02-15T07:22:16;7.55;;;4.60;;
70253;SDS011;57649;42.968;1.608;2024-02-15T07:24:42;8.95;;;5.07;;
70253;SDS011;57649;42.968;1.608;2024-02-15T07:27:07;7.70;;;5.07;;
70253;SDS011;57649;42.968;1.608;2024-02-15T07:29:33;10.38;;;5.00;;
70253;SDS011;57649;42.968;1.608;2024-02-15T07:32:05;8.55;;;5.32;;
70253;SDS011;57649;42.968;1.608;2024-02-15T07:34:31;10.50;;;6.35;;
70253;SDS011;57649;42.968;1.608;2024-02-15T07:36:57;7.90;;;4.80;;
70253;SDS011;57649;42.968;1.608;2024-02-15T07:42:24;5.97;;;4.15;;
70253;SDS011;57649;42.968;1.608;2024-02-15T07:44:50;10.25;;;5.43;;
70253;SDS011;57649;42.968;1.608;2024-02-15T07:47:18;8.10;;;4.57;;
70253;SDS011;57649;42.968;1.608;2024-02-15T07:52:47;8.30;;;5.00;;
70253;SDS011;57649;42.968;1.608;2024-02-15T07:55:37;9.43;;;5.00;;
70253;SDS011;57649;42.968;1.608;2024-02-15T07:58:03;9.45;;;5.03;;
70253;SDS011;57649;42.968;1.608;2024-02-15T08:00:29;8.23;;;5.22;;
70253;SDS011;57649;42.968;1.608;2024-02-15T08:02:55;11.00;;;5.70;;
70253;SDS011;57649;42.968;1.608;2024-02-15T08:05:22;9.98;;;6.38;;
70253;SDS011;57649;42.968;1.608;2024-02-15T08:07:47;9.93;;;4.55;;
70253;SDS011;57649;42.968;1.608;2024-02-15T08:10:13;12.90;;;6.68;;
70253;SDS011;57649;42.968;1.608;2024-02-15T08:12:42;6.85;;;4.55;;
70253;SDS011;57649;42.968;1.608;2024-02-15T08:15:11;7.05;;;4.53;;
70253;SDS011;57649;42.968;1.608;2024-02-15T08:17:44;6.97;;;4.78;;
70253;SDS011;57649;42.968;1.608;2024-02-15T08:20:14;8.95;;;5.20;;
70253;SDS011;57649;42.968;1.608;2024-02-15T08:22:46;8.00;;;5.07;;
70253;SDS011;57649;42.968;1.608;2024-02-15T08:25:15;8.82;;;6.22;;
70253;SDS011;57649;42.968;1.608;2024-02-15T08:27:43;8.23;;;5.80;;
70253;SDS011;57649;42.968;1.608;2024-02-15T08:30:39;9.98;;;5.38;;
70253;SDS011;57649;42.968;1.608;2024-02-15T08:33:40;6.88;;;4.88;;
70253;SDS011;57649;42.968;1.608;2024-02-15T08:36:30;10.95;;;5.50;;
70253;SDS011;57649;42.968;1.608;2024-02-15T08:38:55;10.02;;;5.88;;
70253;SDS011;57649;42.968;1.608;2024-02-15T08:41:21;10.45;;;6.53;;
70253;SDS011;57649;42.968;1.608;2024-02-15T08:43:52;7.38;;;5.63;;
70253;SDS011;57649;42.968;1.608;2024-02-15T08:46:18;7.72;;;5.43;;
70253;SDS011;57649;42.968;1.608;2024-02-15T08:48:44;10.15;;;7.13;;
70253;SDS011;57649;42.968;1.608;2024-02-15T08:51:11;8.13;;;5.28;;
70253;SDS011;57649;42.968;1.608;2024-02-15T08:53:37;7.00;;;4.60;;
70253;SDS011;57649;42.968;1.608;2024-02-15T08:56:11;7.30;;;4.75;;
70253;SDS011;57649;42.968;1.608;2024-02-15T08:58:40;8.52;;;5.35;;
70253;SDS011;57649;42.968;1.608;2024-02-15T09:01:07;7.60;;;4.78;;
70253;SDS011;57649;42.968;1.608;2024-02-15T09:03:33;6.25;;;4.40;;
70253;SDS011;57649;42.968;1.608;2024-02-15T09:05:59;8.75;;;4.80;;
70253;SDS011;57649;42.968;1.608;2024-02-15T09:08:28;9.60;;;4.32;;
70253;SDS011;57649;42.968;1.608;2024-02-15T09:10:57;7.82;;;4.97;;
70253;SDS011;57649;42.968;1.608;2024-02-15T09:13:32;9.90;;;5.55;;
70253;SDS011;57649;42.968;1.608;2024-02-15T09:16:09;10.48;;;5.00;;
70253;SDS011;57649;42.968;1.608;2024-02-15T09:18:36;10.40;;;5.70;;
70253;SDS011;57649;42.968;1.608;2024-02-15T09:21:03;10.30;;;5.45;;
70253;SDS011;57649;42.968;1.608;2024-02-15T09:23:30;9.60;;;5.40;;
70253;SDS011;57649;42.968;1.608;2024-02-15T09:25:56;6.10;;;4.25;;
70253;SDS011;57649;42.968;1.608;2024-02-15T09:28:22;7.40;;;4.80;;
70253;SDS011;57649;42.968;1.608;2024-02-15T09:30:48;7.50;;;4.53;;
70253;SDS011;57649;42.968;1.608;2024-02-15T09:33:16;7.43;;;4.40;;
70253;SDS011;57649;42.968;1.608;2024-02-15T09:35:45;6.65;;;4.70;;
70253;SDS011;57649;42.968;1.608;2024-02-15T09:38:18;6.88;;;4.63;;
70253;SDS011;57649;42.968;1.608;2024-02-15T09:41:40;12.90;;;5.18;;
70253;SDS011;57649;42.968;1.608;2024-02-15T09:44:32;6.05;;;4.57;;
70253;SDS011;57649;42.968;1.608;2024-02-15T09:47:06;7.85;;;4.13;;
70253;SDS011;57649;42.968;1.608;2024-02-15T09:49:38;11.60;;;4.15;;
70253;SDS011;57649;42.968;1.608;2024-02-15T09:52:05;7.82;;;5.00;;
70253;SDS011;57649;42.968;1.608;2024-02-15T09:54:36;9.05;;;5.05;;
70253;SDS011;57649;42.968;1.608;2024-02-15T09:57:05;8.18;;;3.85;;
70253;SDS011;57649;42.968;1.608;2024-02-15T09:59:32;6.47;;;4.03;;
70253;SDS011;57649;42.968;1.608;2024-02-15T10:02:01;6.40;;;4.22;;
70253;SDS011;57649;42.968;1.608;2024-02-15T10:04:26;6.40;;;4.32;;
70253;SDS011;57649;42.968;1.608;2024-02-15T10:06:52;6.95;;;5.07;;
70253;SDS011;57649;42.968;1.608;2024-02-15T10:12:09;4.80;;;2.60;;
70253;SDS011;57649;42.968;1.608;2024-02-15T10:14:35;5.22;;;2.83;;
70253;SDS011;57649;42.968;1.608;2024-02-15T10:17:08;5.38;;;3.20;;
70253;SDS011;57649;42.968;1.608;2024-02-15T10:19:37;6.85;;;2.80;;
70253;SDS011;57649;42.968;1.608;2024-02-15T10:22:07;4.43;;;3.88;;
70253;SDS011;57649;42.968;1.608;2024-02-15T10:24:33;4.57;;;2.90;;
70253;SDS011;57649;42.968;1.608;2024-02-15T10:27:02;5.45;;;2.80;;
70253;SDS011;57649;42.968;1.608;2024-02-15T10:29:29;5.90;;;2.95;;
70253;SDS011;57649;42.968;1.608;2024-02-15T10:31:56;6.85;;;2.83;;
70253;SDS011;57649;42.968;1.608;2024-02-15T10:34:25;5.47;;;3.03;;
70253;SDS011;57649;42.968;1.608;2024-02-15T10:36:55;3.40;;;2.10;;
70253;SDS011;57649;42.968;1.608;2024-02-15T10:39:41;4.35;;;2.72;;
70253;SDS011;57649;42.968;1.608;2024-02-15T10:42:16;5.22;;;2.38;;
70253;SDS011;57649;42.968;1.608;2024-02-15T10:44:43;7.38;;;2.90;;
70253;SDS011;57649;42.968;1.608;2024-02-15T10:47:10;4.90;;;2.60;;
70253;SDS011;57649;42.968;1.608;2024-02-15T10:49:38;4.80;;;2.65;;
70253;SDS011;57649;42.968;1.608;2024-02-15T11:05:34;3.42;;;2.50;;
70253;SDS011;57649;42.968;1.608;2024-02-15T11:08:11;5.82;;;2.85;;
70253;SDS011;57649;42.968;1.608;2024-02-15T11:10:55;4.82;;;2.80;;
70253;SDS011;57649;42.968;1.608;2024-02-15T11:17:06;3.30;;;2.50;;
70253;SDS011;57649;42.968;1.608;2024-02-15T11:22:38;3.92;;;2.50;;
70253;SDS011;57649;42.968;1.608;2024-02-15T11:25:10;3.35;;;2.60;;
70253;SDS011;57649;42.968;1.608;2024-02-15T11:28:01;4.17;;;2.83;;
70253;SDS011;57649;42.968;1.608;2024-02-15T11:31:08;6.35;;;3.65;;
70253;SDS011;57649;42.968;1.608;2024-02-15T11:33:53;5.75;;;3.20;;
70253;SDS011;57649;42.968;1.608;2024-02-15T11:39:59;4.53;;;3.55;;
70253;SDS011;57649;42.968;1.608;2024-02-15T11:45:48;5.85;;;3.70;;
70253;SDS011;57649;42.968;1.608;2024-02-15T11:48:39;5.85;;;3.47;;
70253;SDS011;57649;42.968;1.608;2024-02-15T11:54:08;6.22;;;3.70;;
70253;SDS011;57649;42.968;1.608;2024-02-15T11:59:09;4.95;;;3.20;;
70253;SDS011;57649;42.968;1.608;2024-02-15T12:01:43;7.72;;;3.67;;
70253;SDS011;57649;42.968;1.608;2024-02-15T12:04:31;4.93;;;3.75;;
70253;SDS011;57649;42.968;1.608;2024-02-15T12:07:17;4.72;;;3.08;;
70253;SDS011;57649;42.968;1.608;2024-02-15T12:10:01;7.75;;;3.95;;
70253;SDS011;57649;42.968;1.608;2024-02-15T12:12:58;5.13;;;3.78;;
70253;SDS011;57649;42.968;1.608;2024-02-15T12:15:44;5.57;;;3.45;;
70253;SDS011;57649;42.968;1.608;2024-02-15T12:18:43;7.00;;;3.70;;
70253;SDS011;57649;42.968;1.608;2024-02-15T12:21:12;5.00;;;3.38;;
70253;SDS011;57649;42.968;1.608;2024-02-15T12:23:41;7.85;;;4.25;;
70253;SDS011;57649;42.968;1.608;2024-02-15T12:26:07;5.38;;;3.60;;
70253;SDS011;57649;42.968;1.608;2024-02-15T12:32:10;7.13;;;3.65;;
70253;SDS011;57649;42.968;1.608;2024-02-15T12:45:20;5.07;;;3.30;;
70253;SDS011;57649;42.968;1.608;2024-02-15T12:47:52;7.38;;;4.00;;
70253;SDS011;57649;42.968;1.608;2024-02-15T12:50:23;4.15;;;3.10;;
70253;SDS011;57649;42.968;1.608;2024-02-15T12:52:53;5.03;;;3.38;;
70253;SDS011;57649;42.968;1.608;2024-02-15T12:55:23;4.72;;;3.40;;
70253;SDS011;57649;42.968;1.608;2024-02-15T12:57:50;5.57;;;4.20;;
70253;SDS011;57649;42.968;1.608;2024-02-15T13:00:24;5.07;;;3.53;;
70253;SDS011;57649;42.968;1.608;2024-02-15T13:02:54;5.05;;;3.45;;
70253;SDS011;57649;42.968;1.608;2024-02-15T13:05:25;6.97;;;3.78;;
70253;SDS011;57649;42.968;1.608;2024-02-15T13:10:54;6.95;;;4.45;;
70253;SDS011;57649;42.968;1.608;2024-02-15T13:13:55;7.47;;;4.13;;
70253;SDS011;57649;42.968;1.608;2024-02-15T13:23:26;7.43;;;4.20;;
70253;SDS011;57649;42.968;1.608;2024-02-15T13:25:56;6.60;;;4.20;;
70253;SDS011;57649;42.968;1.608;2024-02-15T13:28:22;5.55;;;4.07;;
70253;SDS011;57649;42.968;1.608;2024-02-15T13:31:05;4.63;;;3.75;;
70253;SDS011;57649;42.968;1.608;2024-02-15T13:33:31;5.93;;;4.35;;
70253;SDS011;57649;42.968;1.608;2024-02-15T13:35:58;7.68;;;4.40;;
70253;SDS011;57649;42.968;1.608;2024-02-15T13:38:23;7.63;;;4.60;;
70253;SDS011;57649;42.968;1.608;2024-02-15T13:40:58;8.02;;;4.70;;
70253;SDS011;57649;42.968;1.608;2024-02-15T13:43:30;7.18;;;4.43;;
70253;SDS011;57649;42.968;1.608;2024-02-15T13:45:57;5.82;;;4.35;;
70253;SDS011;57649;42.968;1.608;2024-02-15T13:48:29;10.73;;;4.40;;
70253;SDS011;57649;42.968;1.608;2024-02-15T13:50:55;6.03;;;4.82;;
70253;SDS011;57649;42.968;1.608;2024-02-15T13:53:21;7.13;;;4.43;;
70253;SDS011;57649;42.968;1.608;2024-02-15T13:55:47;6.82;;;4.65;;
70253;SDS011;57649;42.968;1.608;2024-02-15T13:58:13;7.40;;;4.60;;
70253;SDS011;57649;42.968;1.608;2024-02-15T14:00:39;7.38;;;4.78;;
70253;SDS011;57649;42.968;1.608;2024-02-15T14:03:07;5.15;;;4.28;;
70253;SDS011;57649;42.968;1.608;2024-02-15T14:05:35;6.22;;;4.28;;
70253;SDS011;57649;42.968;1.608;2024-02-15T14:13:34;7.00;;;5.00;;
70253;SDS011;57649;42.968;1.608;2024-02-15T14:16:05;4.88;;;3.80;;
70253;SDS011;57649;42.968;1.608;2024-02-15T14:18:41;8.87;;;4.40;;
70253;SDS011;57649;42.968;1.608;2024-02-15T14:21:09;6.80;;;4.43;;
70253;SDS011;57649;42.968;1.608;2024-02-15T14:23:39;7.38;;;4.72;;
70253;SDS011;57649;42.968;1.608;2024-02-15T14:26:05;5.10;;;4.18;;
70253;SDS011;57649;42.968;1.608;2024-02-15T14:28:32;5.47;;;4.35;;
70253;SDS011;57649;42.968;1.608;2024-02-15T14:31:12;6.97;;;4.05;;
70253;SDS011;57649;42.968;1.608;2024-02-15T14:37:09;5.97;;;4.50;;
70253;SDS011;57649;42.968;1.608;2024-02-15T14:39:49;5.85;;;3.97;;
70253;SDS011;57649;42.968;1.608;2024-02-15T14:42:22;10.00;;;4.47;;
70253;SDS011;57649;42.968;1.608;2024-02-15T14:44:53;9.50;;;4.65;;
70253;SDS011;57649;42.968;1.608;2024-02-15T14:47:24;8.45;;;4.50;;
70253;SDS011;57649;42.968;1.608;2024-02-15T14:49:50;6.25;;;4.20;;
70253;SDS011;57649;42.968;1.608;2024-02-15T14:55:01;6.50;;;4.72;;
70253;SDS011;57649;42.968;1.608;2024-02-15T14:57:30;7.85;;;4.20;;
70253;SDS011;57649;42.968;1.608;2024-02-15T15:00:03;6.80;;;4.38;;
70253;SDS011;57649;42.968;1.608;2024-02-15T15:02:30;9.48;;;4.95;;
70253;SDS011;57649;42.968;1.608;2024-02-15T15:04:55;6.75;;;4.80;;
70253;SDS011;57649;42.968;1.608;2024-02-15T15:07:39;8.25;;;4.40;;
70253;SDS011;57649;42.968;1.608;2024-02-15T15:10:23;7.78;;;4.30;;
70253;SDS011;57649;42.968;1.608;2024-02-15T15:13:07;6.07;;;4.45;;
70253;SDS011;57649;42.968;1.608;2024-02-15T15:15:35;5.82;;;4.55;;
70253;SDS011;57649;42.968;1.608;2024-02-15T15:18:04;5.68;;;4.03;;
70253;SDS011;57649;42.968;1.608;2024-02-15T15:20:30;7.80;;;4.22;;
70253;SDS011;57649;42.968;1.608;2024-02-15T15:23:09;8.65;;;5.28;;
70253;SDS011;57649;42.968;1.608;2024-02-15T15:26:08;7.68;;;4.70;;
70253;SDS011;57649;42.968;1.608;2024-02-15T15:29:14;10.55;;;4.88;;
70253;SDS011;57649;42.968;1.608;2024-02-15T15:31:55;8.30;;;4.63;;
70253;SDS011;57649;42.968;1.608;2024-02-15T15:34:24;7.82;;;5.10;;
70253;SDS011;57649;42.968;1.608;2024-02-15T15:36:50;7.88;;;5.13;;
70253;SDS011;57649;42.968;1.608;2024-02-15T15:39:19;9.43;;;4.72;;
70253;SDS011;57649;42.968;1.608;2024-02-15T15:42:08;7.90;;;5.00;;
70253;SDS011;57649;42.968;1.608;2024-02-15T15:44:36;7.97;;;5.00;;
70253;SDS011;57649;42.968;1.608;2024-02-15T15:47:07;8.00;;;4.88;;
70253;SDS011;57649;42.968;1.608;2024-02-15T15:52:57;8.23;;;4.95;;
70253;SDS011;57649;42.968;1.608;2024-02-15T15:55:25;6.65;;;4.65;;
70253;SDS011;57649;42.968;1.608;2024-02-15T15:58:09;6.57;;;4.40;;
70253;SDS011;57649;42.968;1.608;2024-02-15T16:04:06;13.40;;;5.00;;
70253;SDS011;57649;42.968;1.608;2024-02-15T16:06:58;7.72;;;5.55;;
70253;SDS011;57649;42.968;1.608;2024-02-15T16:09:26;9.82;;;5.97;;
70253;SDS011;57649;42.968;1.608;2024-02-15T16:12:02;6.90;;;5.35;;
70253;SDS011;57649;42.968;1.608;2024-02-15T16:18:12;7.85;;;5.50;;
70253;SDS011;57649;42.968;1.608;2024-02-15T16:20:39;9.27;;;5.90;;
70253;SDS011;57649;42.968;1.608;2024-02-15T16:23:04;7.82;;;5.38;;
70253;SDS011;57649;42.968;1.608;2024-02-15T16:25:29;8.45;;;5.28;;
70253;SDS011;57649;42.968;1.608;2024-02-15T16:27:55;8.80;;;5.47;;
70253;SDS011;57649;42.968;1.608;2024-02-15T16:30:21;13.50;;;10.02;;
70253;SDS011;57649;42.968;1.608;2024-02-15T16:32:46;8.25;;;6.15;;
70253;SDS011;57649;42.968;1.608;2024-02-15T16:35:14;14.88;;;8.00;;
70253;SDS011;57649;42.968;1.608;2024-02-15T16:37:46;12.05;;;8.55;;
70253;SDS011;57649;42.968;1.608;2024-02-15T16:40:24;9.20;;;6.88;;
70253;SDS011;57649;42.968;1.608;2024-02-15T16:43:01;9.88;;;6.20;;
70253;SDS011;57649;42.968;1.608;2024-02-15T16:45:29;10.95;;;6.25;;
70253;SDS011;57649;42.968;1.608;2024-02-15T16:48:21;9.55;;;7.15;;
70253;SDS011;57649;42.968;1.608;2024-02-15T16:50:49;14.68;;;7.13;;
70253;SDS011;57649;42.968;1.608;2024-02-15T16:53:15;9.10;;;6.63;;
70253;SDS011;57649;42.968;1.608;2024-02-15T16:55:42;11.60;;;6.85;;